Time;durP1;ratioP1;P1;durP2;ratioP2;P2;SDS_P1;SDS_P2;PMS_P1;PMS_P2;Temp;Humidity;BMP_temperature;BMP_pressure;BME280_temperature;BME280_humidity;BME280_pressure;Samples;Min_cycle;Max_cycle;Signal;HPM_P1;HPM_P2
2022/03/16 00:00:00;;;;;;;37.22;22.30;;;9.00;99.90;;;;;;4970698;28;20030;-91
2022/03/16 00:02:25;;;;;;;37.90;22.92;;;9.10;99.90;;;;;;4968593;28;20045;-90
2022/03/16 00:04:53;;;;;;;37.97;22.50;;;9.00;99.90;;;;;;4966639;28;20035;-92
2022/03/16 00:07:19;;;;;;;37.58;21.23;;;9.00;99.90;;;;;;4971234;28;20061;-89
2022/03/16 00:09:46;;;;;;;43.05;22.98;;;9.00;99.90;;;;;;4983118;28;20027;-89
2022/03/16 00:12:13;;;;;;;36.00;21.90;;;9.00;99.90;;;;;;4969696;28;20085;-91
2022/03/16 00:14:39;;;;;;;36.75;22.10;;;8.90;99.90;;;;;;4968185;28;20113;-91
2022/03/16 00:17:06;;;;;;;43.38;24.20;;;8.90;99.90;;;;;;4970872;28;20027;-90
2022/03/16 00:19:33;;;;;;;39.40;23.38;;;8.90;99.90;;;;;;4969580;28;20030;-91
2022/03/16 00:22:00;;;;;;;42.05;23.65;;;8.90;99.90;;;;;;4971442;28;20516;-91
2022/03/16 00:24:26;;;;;;;37.45;22.55;;;8.90;99.90;;;;;;4971320;28;20118;-91
2022/03/16 00:26:53;;;;;;;39.80;22.38;;;8.80;99.90;;;;;;4968660;28;20114;-91
2022/03/16 00:29:19;;;;;;;37.38;22.27;;;8.80;99.90;;;;;;4969466;28;20030;-91
2022/03/16 00:31:44;;;;;;;38.70;21.45;;;8.80;99.90;;;;;;4970191;28;20035;-91
2022/03/16 00:34:10;;;;;;;35.08;21.02;;;8.70;99.90;;;;;;4969255;28;20404;-90
2022/03/16 00:36:36;;;;;;;32.95;19.88;;;8.70;99.90;;;;;;4976224;28;20026;-91
2022/03/16 00:39:03;;;;;;;33.22;19.42;;;8.70;99.90;;;;;;4975645;28;20022;-91
2022/03/16 00:41:34;;;;;;;36.72;19.25;;;8.70;99.90;;;;;;4974455;28;20475;-91
2022/03/16 00:44:00;;;;;;;34.15;18.95;;;8.60;99.90;;;;;;4974018;28;20487;-90
2022/03/16 00:46:26;;;;;;;33.42;18.70;;;8.60;99.90;;;;;;4974644;28;20105;-89
2022/03/16 00:48:51;;;;;;;32.20;18.17;;;8.60;99.90;;;;;;4970942;28;20316;-89
2022/03/16 00:51:17;;;;;;;30.95;17.98;;;8.60;99.90;;;;;;4974472;28;20031;-91
2022/03/16 00:53:45;;;;;;;34.22;18.20;;;8.60;99.90;;;;;;4972352;28;20479;-90
2022/03/16 00:56:11;;;;;;;30.85;17.85;;;8.50;99.90;;;;;;4971011;28;20030;-90
2022/03/16 00:58:37;;;;;;;29.77;17.63;;;8.50;99.90;;;;;;4975410;28;20031;-91
2022/03/16 01:01:05;;;;;;;28.35;16.60;;;8.40;99.90;;;;;;4973761;28;20048;-90
2022/03/16 01:03:33;;;;;;;30.80;17.98;;;8.40;99.90;;;;;;4972456;28;20109;-90
2022/03/16 01:06:00;;;;;;;29.77;16.70;;;8.40;99.90;;;;;;4971817;28;20440;-90
2022/03/16 01:08:25;;;;;;;33.33;17.88;;;8.30;99.90;;;;;;4966995;28;20033;-91
2022/03/16 01:10:51;;;;;;;34.30;18.70;;;8.40;99.90;;;;;;4969548;28;20102;-91
2022/03/16 01:13:17;;;;;;;32.60;18.48;;;8.30;99.90;;;;;;4972823;28;20081;-89
2022/03/16 01:15:42;;;;;;;34.45;18.55;;;8.30;99.90;;;;;;4970596;28;20494;-89
2022/03/16 01:18:08;;;;;;;31.40;19.30;;;8.20;99.90;;;;;;4972758;28;20475;-90
2022/03/16 01:20:36;;;;;;;34.63;18.80;;;8.20;99.90;;;;;;4968177;28;20620;-91
2022/03/16 01:23:01;;;;;;;34.30;18.45;;;8.20;99.90;;;;;;4974299;28;20071;-90
2022/03/16 01:25:27;;;;;;;32.78;18.17;;;8.20;99.90;;;;;;4972213;28;20046;-90
2022/03/16 01:27:53;;;;;;;30.15;17.65;;;8.20;99.90;;;;;;4973092;28;20056;-90
2022/03/16 01:30:18;;;;;;;31.13;18.63;;;8.20;99.90;;;;;;4995353;28;20035;-88
2022/03/16 01:32:44;;;;;;;33.17;18.98;;;8.20;99.90;;;;;;4993881;28;20065;-89
2022/03/16 01:35:10;;;;;;;31.45;17.83;;;8.10;99.90;;;;;;4973259;28;20062;-90
2022/03/16 01:37:41;;;;;;;34.00;18.98;;;8.00;99.90;;;;;;4971149;28;20122;-91
2022/03/16 01:40:07;;;;;;;34.90;18.80;;;7.90;99.90;;;;;;4967143;28;20115;-89
2022/03/16 01:50:11;;;;;;;33.15;18.75;;;8.00;99.90;;;;;;4987407;28;20042;-89
2022/03/16 01:52:39;;;;;;;31.27;17.88;;;8.00;99.90;;;;;;4963787;28;20026;-90
2022/03/16 01:55:05;;;;;;;31.80;18.50;;;8.00;99.90;;;;;;4972430;28;20046;-89
2022/03/16 01:57:35;;;;;;;32.30;18.70;;;8.00;99.90;;;;;;4960056;28;20376;-89
2022/03/16 02:00:06;;;;;;;33.15;18.92;;;8.00;99.90;;;;;;4977990;28;20051;-89
2022/03/16 02:02:33;;;;;;;32.72;18.45;;;7.90;99.90;;;;;;4991013;28;20030;-89
2022/03/16 02:04:58;;;;;;;31.88;18.50;;;7.90;99.90;;;;;;4959544;28;20057;-90
2022/03/16 02:07:24;;;;;;;33.60;19.63;;;7.90;99.90;;;;;;4958637;28;20027;-89
2022/03/16 02:09:52;;;;;;;33.10;19.35;;;7.80;99.90;;;;;;4953637;28;20400;-89
2022/03/16 02:12:17;;;;;;;33.70;19.05;;;7.80;99.90;;;;;;4965465;28;20126;-89
2022/03/16 02:14:43;;;;;;;34.80;18.48;;;7.80;99.90;;;;;;4970785;28;20027;-90
2022/03/16 02:17:09;;;;;;;32.05;18.00;;;7.80;99.90;;;;;;4976783;28;20054;-91
2022/03/16 02:19:35;;;;;;;34.30;19.10;;;7.70;99.90;;;;;;4978545;28;20038;-89
2022/03/16 02:22:06;;;;;;;30.85;18.23;;;7.70;99.90;;;;;;4993347;28;20026;-90
2022/03/16 02:24:31;;;;;;;32.58;18.15;;;7.60;99.90;;;;;;4956881;28;20494;-90
2022/03/16 02:26:58;;;;;;;31.48;17.83;;;7.60;99.90;;;;;;4955138;28;20058;-90
2022/03/16 02:29:24;;;;;;;33.53;19.10;;;7.50;99.90;;;;;;4985589;28;20038;-89
2022/03/16 02:31:50;;;;;;;34.70;19.60;;;7.40;99.90;;;;;;4956667;28;20034;-89
2022/03/16 02:34:15;;;;;;;35.40;19.67;;;7.40;99.90;;;;;;4954248;28;20030;-89
2022/03/16 02:36:41;;;;;;;33.60;19.45;;;7.30;99.90;;;;;;4974388;28;20160;-89
2022/03/16 02:39:07;;;;;;;34.38;19.52;;;7.20;99.90;;;;;;4951509;28;20082;-91
2022/03/16 02:41:33;;;;;;;34.05;19.27;;;7.10;99.90;;;;;;4958460;28;20027;-90
2022/03/16 02:43:58;;;;;;;33.45;19.58;;;7.00;99.90;;;;;;4956301;28;20026;-89
2022/03/16 02:46:24;;;;;;;35.35;19.63;;;6.90;99.90;;;;;;4961874;28;20030;-89
2022/03/16 02:48:49;;;;;;;35.63;20.98;;;6.90;99.90;;;;;;4962915;28;20510;-91
2022/03/16 02:51:15;;;;;;;34.85;20.05;;;6.80;99.90;;;;;;4957179;28;20101;-89
2022/03/16 02:53:41;;;;;;;39.50;21.10;;;6.70;99.90;;;;;;4955690;28;20105;-91
2022/03/16 02:56:07;;;;;;;34.85;19.90;;;6.70;99.90;;;;;;4956613;28;20027;-91
2022/03/16 02:58:33;;;;;;;37.22;21.08;;;6.70;99.90;;;;;;4956000;28;20114;-90
2022/03/16 03:00:59;;;;;;;36.97;19.95;;;6.60;99.90;;;;;;4958594;28;20095;-90
2022/03/16 03:03:25;;;;;;;35.85;20.73;;;6.50;99.90;;;;;;4959841;28;20039;-89
2022/03/16 03:05:54;;;;;;;39.13;22.20;;;6.50;99.90;;;;;;4963643;28;20023;-89
2022/03/16 03:08:20;;;;;;;37.58;20.90;;;6.40;99.90;;;;;;4957385;28;20030;-89
2022/03/16 03:10:45;;;;;;;36.75;20.65;;;6.40;99.90;;;;;;4957942;28;20537;-89
2022/03/16 03:13:12;;;;;;;38.65;21.05;;;6.40;99.90;;;;;;4956403;28;20126;-89
2022/03/16 03:15:38;;;;;;;37.72;21.75;;;6.40;99.90;;;;;;4957054;28;20239;-90
2022/03/16 03:18:03;;;;;;;35.63;20.63;;;6.40;99.90;;;;;;4978227;28;20027;-89
2022/03/16 03:20:29;;;;;;;35.80;20.98;;;6.40;99.90;;;;;;4959967;28;20030;-89
2022/03/16 03:22:55;;;;;;;38.50;21.85;;;6.40;99.90;;;;;;4960368;28;20059;-89
2022/03/16 03:25:21;;;;;;;37.00;21.20;;;6.40;99.90;;;;;;4956876;28;20054;-89
2022/03/16 03:27:46;;;;;;;39.00;21.95;;;6.40;99.90;;;;;;4959686;28;20414;-90
2022/03/16 03:30:12;;;;;;;38.80;21.95;;;6.40;99.90;;;;;;4956926;28;20447;-90
2022/03/16 03:32:38;;;;;;;37.17;21.55;;;6.40;99.90;;;;;;4962673;28;20027;-88
2022/03/16 03:35:04;;;;;;;42.28;22.95;;;6.30;99.90;;;;;;4956639;28;20033;-89
2022/03/16 03:37:30;;;;;;;39.58;21.73;;;6.40;99.90;;;;;;4956848;28;20065;-89
2022/03/16 03:39:56;;;;;;;38.25;22.08;;;6.30;99.90;;;;;;4953390;28;20027;-89
2022/03/16 03:42:22;;;;;;;42.58;22.88;;;6.30;99.90;;;;;;4975010;28;20491;-89
2022/03/16 03:44:48;;;;;;;40.67;22.45;;;6.30;99.90;;;;;;4962895;28;20030;-89
2022/03/16 03:47:14;;;;;;;38.90;21.73;;;6.30;99.90;;;;;;4956595;28;20640;-90
2022/03/16 03:49:42;;;;;;;42.38;22.70;;;6.30;99.90;;;;;;4973237;28;20097;-90
2022/03/16 03:52:08;;;;;;;40.17;22.85;;;6.30;99.90;;;;;;4973651;28;20031;-89
2022/03/16 03:54:34;;;;;;;37.05;21.20;;;6.30;99.90;;;;;;4953465;28;20428;-89
2022/03/16 03:57:00;;;;;;;38.67;22.15;;;6.30;99.90;;;;;;4955797;28;20011;-90
2022/03/16 03:59:25;;;;;;;41.20;23.00;;;6.30;99.90;;;;;;4988467;28;20022;-89
2022/03/16 04:01:51;;;;;;;35.95;21.85;;;6.30;99.90;;;;;;4955256;28;20027;-89
2022/03/16 04:04:17;;;;;;;37.42;21.63;;;6.30;99.90;;;;;;4955050;28;20395;-90
2022/03/16 04:06:43;;;;;;;39.10;22.42;;;6.30;99.90;;;;;;4958401;28;20031;-89
2022/03/16 04:09:09;;;;;;;43.08;22.35;;;6.30;99.90;;;;;;4956781;28;20502;-91
2022/03/16 04:11:35;;;;;;;39.03;21.80;;;6.30;99.90;;;;;;4955853;28;20110;-89
2022/03/16 04:14:00;;;;;;;37.05;20.95;;;6.30;99.90;;;;;;4964069;28;20019;-89
2022/03/16 04:16:26;;;;;;;38.08;21.23;;;6.30;99.90;;;;;;4964766;28;20038;-90
2022/03/16 04:18:52;;;;;;;37.88;20.92;;;6.30;99.90;;;;;;4958288;28;20022;-89
2022/03/16 04:21:18;;;;;;;38.08;21.63;;;6.30;99.90;;;;;;4960017;28;20718;-89
2022/03/16 04:23:43;;;;;;;36.63;20.58;;;6.30;99.90;;;;;;4962164;28;20027;-89
2022/03/16 04:26:09;;;;;;;35.35;20.15;;;6.30;99.90;;;;;;4972574;28;20026;-89
2022/03/16 04:28:35;;;;;;;38.30;20.73;;;6.30;99.90;;;;;;4973824;28;20023;-89
2022/03/16 04:31:04;;;;;;;35.22;20.65;;;6.30;99.90;;;;;;4956207;28;20060;-89
2022/03/16 04:33:29;;;;;;;33.53;20.05;;;6.30;99.90;;;;;;4955319;28;20039;-89
2022/03/16 04:35:55;;;;;;;32.97;20.00;;;6.20;99.90;;;;;;4954022;28;20089;-89
2022/03/16 04:38:21;;;;;;;32.35;19.90;;;6.20;99.90;;;;;;4951611;28;20030;-89
2022/03/16 04:40:47;;;;;;;33.33;19.90;;;6.30;99.90;;;;;;4957644;28;20031;-89
2022/03/16 04:43:13;;;;;;;37.03;19.33;;;6.20;99.90;;;;;;4955437;28;20077;-89
2022/03/16 04:45:39;;;;;;;30.58;18.67;;;6.20;99.90;;;;;;4963143;28;20026;-89
2022/03/16 04:48:09;;;;;;;32.55;19.58;;;6.20;99.90;;;;;;4973616;28;20026;-90
2022/03/16 04:50:38;;;;;;;34.25;19.33;;;6.20;99.90;;;;;;4957853;28;20022;-89
2022/03/16 04:53:07;;;;;;;33.67;19.13;;;6.20;99.90;;;;;;4956817;28;20387;-90
2022/03/16 04:55:35;;;;;;;36.42;21.30;;;6.20;99.90;;;;;;4957002;28;20023;-89
2022/03/16 04:58:02;;;;;;;36.83;19.95;;;6.20;99.90;;;;;;4957202;28;20090;-89
2022/03/16 05:00:27;;;;;;;36.95;21.38;;;6.20;99.90;;;;;;4963215;28;20082;-89
2022/03/16 05:02:53;;;;;;;35.90;20.25;;;6.20;99.90;;;;;;4957698;28;20019;-90
2022/03/16 05:05:18;;;;;;;32.78;19.58;;;6.20;99.90;;;;;;4948756;28;20077;-90
2022/03/16 05:07:44;;;;;;;33.63;20.77;;;6.20;99.90;;;;;;4955540;28;20062;-89
2022/03/16 05:10:11;;;;;;;35.72;19.65;;;6.20;99.90;;;;;;4955359;28;20054;-89
2022/03/16 05:12:38;;;;;;;32.80;20.10;;;6.20;99.90;;;;;;4956148;28;20030;-89
2022/03/16 05:15:09;;;;;;;34.90;20.25;;;6.20;99.90;;;;;;4960015;28;20093;-89
2022/03/16 05:17:35;;;;;;;37.38;21.58;;;6.20;99.90;;;;;;4973471;28;20023;-90
2022/03/16 05:20:01;;;;;;;36.17;20.40;;;6.10;99.90;;;;;;4973297;28;20076;-90
2022/03/16 05:22:27;;;;;;;31.15;18.80;;;6.20;99.90;;;;;;4959294;28;20394;-90
2022/03/16 05:24:52;;;;;;;32.50;18.75;;;6.10;99.90;;;;;;4959761;28;20022;-89
2022/03/16 05:27:20;;;;;;;30.77;18.58;;;6.10;99.90;;;;;;4970328;28;20026;-89
2022/03/16 05:29:46;;;;;;;32.85;18.77;;;6.10;99.90;;;;;;4963416;28;20460;-91
2022/03/16 05:32:11;;;;;;;30.30;18.67;;;6.10;99.90;;;;;;4960204;28;20042;-89
2022/03/16 05:34:37;;;;;;;33.60;19.98;;;6.00;99.90;;;;;;4960475;28;20027;-90
2022/03/16 05:37:03;;;;;;;29.30;18.20;;;6.10;99.90;;;;;;4965504;28;20022;-89
2022/03/16 05:39:29;;;;;;;31.92;19.15;;;6.10;99.90;;;;;;4961282;28;20113;-89
2022/03/16 05:41:54;;;;;;;29.85;18.40;;;6.10;99.90;;;;;;4962108;28;20050;-89
2022/03/16 05:44:20;;;;;;;29.77;18.65;;;6.10;99.90;;;;;;4971107;28;20023;-89
2022/03/16 05:59:41;;;;;;;33.05;19.23;;;6.00;99.90;;;;;;4993152;28;20474;-90
2022/03/16 06:02:07;;;;;;;32.30;17.85;;;6.00;99.90;;;;;;4961599;28;20023;-90
2022/03/16 06:04:32;;;;;;;29.33;18.17;;;6.00;99.90;;;;;;4958353;28;20037;-89
2022/03/16 06:06:58;;;;;;;28.15;16.95;;;6.00;99.90;;;;;;4962992;28;20510;-90
2022/03/16 06:09:24;;;;;;;32.92;19.33;;;6.00;99.90;;;;;;4959920;28;20054;-89
2022/03/16 06:11:49;;;;;;;28.15;17.75;;;6.00;99.90;;;;;;4977108;28;20031;-90
2022/03/16 06:14:15;;;;;;;31.77;18.92;;;6.00;99.90;;;;;;4960573;28;20030;-90
2022/03/16 06:16:40;;;;;;;31.00;18.77;;;6.00;99.90;;;;;;4961294;28;20023;-90
2022/03/16 06:19:06;;;;;;;30.65;17.98;;;6.00;99.90;;;;;;4956849;28;20022;-91
2022/03/16 06:21:31;;;;;;;28.70;17.77;;;6.00;99.90;;;;;;4973218;28;20027;-89
2022/03/16 06:23:57;;;;;;;30.13;17.55;;;6.00;99.90;;;;;;4977933;28;20104;-89
2022/03/16 06:26:22;;;;;;;31.08;18.45;;;6.00;99.90;;;;;;4959296;28;20034;-88
2022/03/16 06:28:48;;;;;;;31.20;18.15;;;6.00;99.90;;;;;;4976183;28;20042;-89
2022/03/16 06:31:14;;;;;;;29.45;17.67;;;6.00;99.90;;;;;;4964267;28;20561;-89
2022/03/16 06:33:39;;;;;;;26.60;16.20;;;6.00;99.90;;;;;;4955879;28;20035;-89
2022/03/16 06:36:05;;;;;;;25.55;16.00;;;6.10;99.90;;;;;;4959111;28;20042;-89
2022/03/16 06:38:30;;;;;;;26.25;15.65;;;6.10;99.90;;;;;;4975215;28;20113;-89
2022/03/16 06:40:56;;;;;;;24.77;15.80;;;6.10;99.90;;;;;;4959110;28;20054;-89
2022/03/16 06:43:22;;;;;;;25.05;15.65;;;6.20;99.90;;;;;;4954947;28;20023;-89
2022/03/16 06:45:47;;;;;;;25.30;15.73;;;6.20;99.90;;;;;;4960893;28;20049;-90
2022/03/16 06:48:13;;;;;;;21.23;14.07;;;6.30;99.90;;;;;;4957754;28;20506;-88
2022/03/16 06:50:39;;;;;;;24.33;15.23;;;6.30;99.90;;;;;;4954860;28;20073;-89
2022/03/16 06:53:04;;;;;;;23.58;15.48;;;6.40;99.90;;;;;;4959670;28;20027;-89
2022/03/16 06:55:30;;;;;;;24.88;15.52;;;6.50;99.90;;;;;;4970133;28;20037;-89
2022/03/16 06:57:56;;;;;;;21.42;14.80;;;6.50;99.90;;;;;;4986583;28;20037;-89
2022/03/16 07:00:21;;;;;;;23.33;14.90;;;6.70;99.90;;;;;;4992241;28;20023;-89
2022/03/16 07:02:56;;;;;;;23.73;14.68;;;6.80;99.90;;;;;;4997772;28;20090;-89
2022/03/16 07:05:27;;;;;;;23.52;15.10;;;6.90;99.90;;;;;;4981098;28;20099;-89
2022/03/16 07:07:56;;;;;;;23.20;14.52;;;7.10;99.90;;;;;;4952978;28;20030;-90
2022/03/16 07:10:21;;;;;;;22.77;14.23;;;7.30;99.90;;;;;;4962968;28;20079;-90
2022/03/16 07:12:47;;;;;;;21.35;14.15;;;7.50;99.90;;;;;;4956943;28;20035;-89
2022/03/16 07:15:13;;;;;;;21.17;13.45;;;7.70;99.90;;;;;;4977014;28;20038;-90
2022/03/16 07:17:39;;;;;;;20.42;13.18;;;7.80;99.90;;;;;;4959185;28;20037;-90
2022/03/16 07:20:06;;;;;;;21.20;13.40;;;8.00;99.90;;;;;;4959693;28;20019;-90
2022/03/16 07:22:33;;;;;;;20.05;14.10;;;8.20;99.90;;;;;;4962594;28;20022;-90
2022/03/16 07:24:59;;;;;;;22.10;13.75;;;8.40;99.90;;;;;;4965913;28;20037;-90
2022/03/16 07:27:25;;;;;;;19.90;13.43;;;8.50;99.90;;;;;;4959129;28;20026;-90
2022/03/16 07:29:50;;;;;;;19.73;13.60;;;8.70;99.90;;;;;;4967252;28;20023;-89
2022/03/16 07:32:16;;;;;;;19.98;13.45;;;8.90;99.90;;;;;;4962439;28;20035;-90
2022/03/16 07:34:43;;;;;;;20.55;12.85;;;9.00;99.90;;;;;;4972053;28;20023;-90
2022/03/16 07:37:09;;;;;;;16.15;11.98;;;9.20;99.90;;;;;;4956214;28;20023;-90
2022/03/16 07:39:34;;;;;;;20.10;12.70;;;9.50;99.90;;;;;;4957412;28;20137;-89
2022/03/16 07:42:03;;;;;;;18.65;11.15;;;9.80;99.90;;;;;;5032238;23;20069;-91
2022/03/16 07:44:29;;;;;;;17.73;12.07;;;10.10;99.90;;;;;;4970203;28;20054;-91
2022/03/16 07:46:54;;;;;;;16.50;11.55;;;10.20;99.90;;;;;;4978245;28;20026;-90
2022/03/16 07:49:20;;;;;;;19.00;11.65;;;10.60;99.90;;;;;;5006487;28;20022;-89
2022/03/16 07:51:46;;;;;;;16.33;11.70;;;10.80;99.90;;;;;;4998511;28;20038;-91
2022/03/16 07:54:12;;;;;;;15.52;11.65;;;11.20;99.90;;;;;;4983538;28;20121;-90
2022/03/16 07:56:37;;;;;;;15.52;11.60;;;11.50;99.90;;;;;;4977486;28;20035;-92
2022/03/16 07:59:03;;;;;;;14.63;11.23;;;11.70;99.70;;;;;;4989519;28;20030;-91
2022/03/16 08:01:35;;;;;;;13.50;10.60;;;12.10;99.20;;;;;;4997448;28;20057;-91
2022/03/16 08:04:06;;;;;;;14.57;10.50;;;12.60;98.40;;;;;;4994794;28;20022;-92
2022/03/16 08:06:37;;;;;;;14.10;10.57;;;12.70;97.90;;;;;;5000009;28;20030;-91
2022/03/16 08:09:05;;;;;;;14.20;10.45;;;12.70;98.00;;;;;;4989748;28;20081;-92
2022/03/16 08:11:44;;;;;;;14.25;10.60;;;12.40;98.30;;;;;;5001111;28;20146;-91
2022/03/16 08:14:13;;;;;;;13.68;10.85;;;12.20;99.00;;;;;;4984416;28;20027;-92
2022/03/16 08:17:11;;;;;;;13.65;10.15;;;11.90;99.10;;;;;;5003592;28;20022;-92
2022/03/16 08:19:48;;;;;;;13.30;10.30;;;11.90;99.10;;;;;;5010615;28;20014;-92
2022/03/16 08:22:58;;;;;;;;;;;;;;;;;;;;;
2022/03/16 08:26:11;;;;;;;13.90;10.80;;;11.80;98.50;;;;;;5007232;28;20045;-92
2022/03/16 08:28:48;;;;;;;14.43;10.57;;;12.20;98.00;;;;;;4998308;28;20066;-90
2022/03/16 08:31:31;;;;;;;15.02;10.63;;;12.30;97.30;;;;;;5014683;28;20026;-90
2022/03/16 08:34:06;;;;;;;15.48;10.90;;;11.90;97.50;;;;;;4980875;28;20058;-91
2022/03/16 08:36:52;;;;;;;15.35;11.23;;;12.40;97.10;;;;;;4985757;28;20101;-91
2022/03/16 08:39:20;;;;;;;14.30;10.75;;;12.90;96.30;;;;;;5018596;28;20505;-90
2022/03/16 08:41:54;;;;;;;16.98;10.95;;;13.40;95.90;;;;;;4987254;28;20030;-91
2022/03/16 08:44:42;;;;;;;15.55;11.30;;;13.80;95.70;;;;;;4988536;28;20053;-91
2022/03/16 08:47:31;;;;;;;15.27;10.70;;;14.00;95.00;;;;;;5002829;28;20026;-92
2022/03/16 08:50:00;;;;;;;14.30;11.05;;;14.30;94.80;;;;;;4992583;28;20031;-92
2022/03/16 08:52:49;;;;;;;14.75;10.57;;;14.40;94.60;;;;;;4993120;28;20030;-92
2022/03/16 08:55:21;;;;;;;14.25;10.27;;;14.40;94.60;;;;;;4977314;28;20038;-91
2022/03/16 08:57:50;;;;;;;13.95;10.40;;;14.30;94.00;;;;;;4992099;28;20019;-92
2022/03/16 09:00:19;;;;;;;12.60;10.30;;;14.20;93.50;;;;;;4984173;28;20022;-93
2022/03/16 09:02:48;;;;;;;12.02;9.63;;;13.90;93.40;;;;;;4973528;28;20056;-92
2022/03/16 09:05:15;;;;;;;14.07;10.27;;;13.60;93.80;;;;;;4985243;28;20169;-92
2022/03/16 09:07:46;;;;;;;13.30;10.07;;;13.40;94.10;;;;;;4981236;28;20026;-93
2022/03/16 09:10:22;;;;;;;13.82;10.48;;;13.20;93.80;;;;;;5002617;28;20038;-92
2022/03/16 09:12:52;;;;;;;13.20;9.50;;;13.10;94.20;;;;;;4982862;28;20041;-92
2022/03/16 09:15:41;;;;;;;13.40;9.77;;;12.90;94.30;;;;;;4990736;28;20029;-90
2022/03/16 09:18:18;;;;;;;13.23;9.57;;;12.70;94.10;;;;;;4988285;28;20031;-91
2022/03/16 09:21:20;;;;;;;12.93;9.70;;;12.30;94.10;;;;;;4974819;28;20035;-91
2022/03/16 09:23:48;;;;;;;11.88;8.93;;;12.20;94.60;;;;;;4981078;28;20030;-91
2022/03/16 09:26:16;;;;;;;14.35;10.88;;;12.20;94.90;;;;;;5000742;28;20065;-92
2022/03/16 09:28:47;;;;;;;12.70;9.32;;;12.30;94.80;;;;;;5004259;28;20026;-91
2022/03/16 09:31:16;;;;;;;12.77;9.80;;;12.30;94.80;;;;;;5005895;28;20028;-92
2022/03/16 09:33:48;;;;;;;12.07;9.35;;;12.40;94.80;;;;;;4999976;28;20026;-91
2022/03/16 09:36:19;;;;;;;12.88;9.30;;;12.50;94.90;;;;;;4998766;28;20062;-91
2022/03/16 09:38:45;;;;;;;12.70;9.77;;;12.60;94.90;;;;;;5004258;28;20026;-91
2022/03/16 09:41:16;;;;;;;13.25;10.23;;;12.80;94.90;;;;;;5004016;28;20046;-93
2022/03/16 09:43:51;;;;;;;12.63;9.80;;;12.90;94.80;;;;;;4991922;28;20426;-91
2022/03/16 09:46:31;;;;;;;14.20;9.80;;;13.00;94.40;;;;;;4988488;28;20033;-91
2022/03/16 09:48:57;;;;;;;11.68;9.05;;;13.00;94.70;;;;;;4982834;28;20187;-92
2022/03/16 09:51:25;;;;;;;14.13;10.60;;;13.10;94.50;;;;;;4981279;28;20111;-92
2022/03/16 09:53:53;;;;;;;14.95;10.55;;;13.20;94.70;;;;;;5003696;28;20033;-92
2022/03/16 09:56:22;;;;;;;12.45;9.32;;;13.40;94.50;;;;;;4965152;28;20019;-90
2022/03/16 09:58:50;;;;;;;12.98;9.88;;;13.50;94.50;;;;;;4993091;28;20023;-92
2022/03/16 10:01:19;;;;;;;12.43;9.50;;;13.60;94.20;;;;;;4992100;28;20597;-91
2022/03/16 10:03:48;;;;;;;11.27;8.98;;;13.70;94.20;;;;;;4994470;28;20121;-91
2022/03/16 10:06:21;;;;;;;13.57;9.38;;;13.80;94.10;;;;;;4981053;28;20041;-89
2022/03/16 10:14:26;;;;;;;12.20;8.73;;;13.70;92.90;;;;;;4998545;28;20117;-92
2022/03/16 10:19:51;;;;;;;13.77;9.43;;;13.60;93.00;;;;;;4986269;28;20026;-93
2022/03/16 10:22:28;;;;;;;13.02;9.75;;;13.60;92.80;;;;;;4973527;28;20037;-91
2022/03/16 10:25:10;;;;;;;12.60;8.35;;;13.70;93.50;;;;;;4966542;28;20133;-92
2022/03/16 10:27:39;;;;;;;;;;;13.80;93.30;;;;;;4977488;28;20038;-91
2022/03/16 10:30:08;;;;;;;11.50;8.35;;;14.00;93.70;;;;;;4964978;28;19910;-92
2022/03/16 10:32:34;;;;;;;11.95;9.00;;;14.00;93.20;;;;;;4979522;28;20403;-91
2022/03/16 10:35:06;;;;;;;12.05;9.23;;;13.90;92.90;;;;;;4973987;28;20072;-91
2022/03/16 10:37:35;;;;;;;12.25;9.02;;;13.90;93.10;;;;;;4972907;28;20018;-92
2022/03/16 10:40:14;;;;;;;12.68;8.52;;;13.90;92.90;;;;;;4989835;28;20080;-91
2022/03/16 10:48:22;;;;;;;11.20;9.02;;;14.10;92.80;;;;;;5015989;28;20140;-90
2022/03/16 10:50:56;;;;;;;10.95;8.57;;;14.20;92.70;;;;;;4961534;28;20035;-90
2022/03/16 10:53:28;;;;;;;11.50;8.80;;;14.20;92.60;;;;;;4964512;28;20049;-91
2022/03/16 10:55:56;;;;;;;11.18;8.27;;;14.30;92.50;;;;;;4975321;28;20073;-91
2022/03/16 10:58:24;;;;;;;10.55;8.35;;;14.40;92.50;;;;;;4979484;28;20511;-90
2022/03/16 11:00:57;;;;;;;14.40;8.57;;;14.50;92.30;;;;;;4994403;28;20026;-89
2022/03/16 11:03:25;;;;;;;9.65;8.18;;;14.40;91.50;;;;;;5004136;28;20103;-89
2022/03/16 11:05:53;;;;;;;11.55;8.15;;;14.40;91.50;;;;;;4974565;28;20046;-89
2022/03/16 11:08:20;;;;;;;10.20;8.18;;;14.30;91.10;;;;;;4972239;28;20027;-90
2022/03/16 11:10:46;;;;;;;10.25;7.95;;;14.40;91.50;;;;;;4974298;28;20030;-90
2022/03/16 11:13:31;;;;;;;9.77;7.75;;;14.50;91.40;;;;;;4973852;28;20129;-91
2022/03/16 11:15:59;;;;;;;10.40;8.00;;;14.60;91.60;;;;;;4972164;28;20121;-90
2022/03/16 11:18:25;;;;;;;9.90;7.88;;;14.60;91.20;;;;;;4966902;28;20022;-91
2022/03/16 11:20:56;;;;;;;10.10;7.97;;;14.70;91.10;;;;;;4988850;28;20615;-89
2022/03/16 11:26:28;;;;;;;9.10;7.68;;;14.80;90.80;;;;;;4995056;28;20090;-92
2022/03/16 11:29:00;;;;;;;10.47;8.03;;;14.80;91.00;;;;;;4976640;28;20033;-90
2022/03/16 11:31:30;;;;;;;9.07;7.63;;;15.00;91.20;;;;;;4987660;28;20034;-91
2022/03/16 11:34:05;;;;;;;7.90;7.00;;;15.10;91.00;;;;;;4973695;28;20034;-90
2022/03/16 11:36:34;;;;;;;8.50;7.30;;;15.20;90.60;;;;;;4962589;28;20105;-90
2022/03/16 11:39:02;;;;;;;9.55;7.43;;;15.20;90.10;;;;;;4971441;28;20027;-91
2022/03/16 11:41:32;;;;;;;8.90;6.60;;;15.20;90.00;;;;;;4978685;28;20022;-90
2022/03/16 11:44:26;;;;;;;9.02;6.95;;;15.30;89.50;;;;;;4975072;28;20034;-89
2022/03/16 11:47:16;;;;;;;8.38;6.93;;;15.20;88.60;;;;;;4984365;28;20154;-89
2022/03/16 11:50:03;;;;;;;7.43;6.50;;;15.20;88.00;;;;;;4961490;28;20061;-90
2022/03/16 11:53:05;;;;;;;8.52;7.20;;;15.20;87.70;;;;;;4973233;28;20125;-91
2022/03/16 11:55:43;;;;;;;8.63;6.80;;;15.30;87.20;;;;;;4970453;28;20050;-91
2022/03/16 11:58:17;;;;;;;8.82;6.60;;;15.30;87.20;;;;;;4994437;28;20027;-92
2022/03/16 12:00:44;;;;;;;9.15;7.00;;;15.30;85.60;;;;;;4990025;28;20051;-91
2022/03/16 12:03:21;;;;;;;8.23;6.60;;;15.30;85.40;;;;;;4971752;28;20049;-89
2022/03/16 12:06:02;;;;;;;8.23;6.60;;;15.20;84.30;;;;;;4974992;28;20042;-91
2022/03/16 12:08:32;;;;;;;11.88;7.15;;;15.10;83.30;;;;;;4972482;28;20560;-88
2022/03/16 12:13:48;;;;;;;9.10;6.93;;;15.00;84.10;;;;;;4994139;28;20454;-88
2022/03/16 12:16:18;;;;;;;11.30;8.07;;;15.10;83.70;;;;;;4987965;28;20068;-91
2022/03/16 12:18:47;;;;;;;9.77;7.40;;;15.10;82.80;;;;;;4978489;28;20383;-90
2022/03/16 12:21:14;;;;;;;9.90;7.68;;;15.00;82.10;;;;;;4971143;28;20034;-90
2022/03/16 12:23:54;;;;;;;8.98;7.32;;;15.00;82.40;;;;;;4981368;28;20026;-90
2022/03/16 12:26:25;;;;;;;13.35;9.02;;;15.00;82.00;;;;;;4973781;28;20617;-90
2022/03/16 12:29:09;;;;;;;10.23;8.15;;;15.00;82.30;;;;;;4977613;28;20492;-90
2022/03/16 12:31:36;;;;;;;12.23;8.35;;;15.00;82.00;;;;;;4982616;28;20034;-91
2022/03/16 12:34:26;;;;;;;11.85;8.35;;;15.10;82.50;;;;;;5017094;28;20113;-92
2022/03/16 12:37:01;;;;;;;9.57;7.63;;;15.20;82.30;;;;;;4997664;28;20054;-92
2022/03/16 12:39:32;;;;;;;11.63;8.80;;;15.30;82.30;;;;;;4984204;28;20019;-89
2022/03/16 12:45:01;;;;;;;11.57;8.38;;;15.40;81.50;;;;;;5005841;28;20296;-90
2022/03/16 12:47:32;;;;;;;10.45;8.77;;;15.30;81.30;;;;;;4992895;28;20090;-88
2022/03/16 12:50:01;;;;;;;12.15;9.43;;;15.20;81.20;;;;;;5018927;28;20014;-88
2022/03/16 12:52:27;;;;;;;12.63;10.00;;;15.00;81.30;;;;;;5009821;28;20082;-87
2022/03/16 12:54:56;;;;;;;12.13;8.93;;;14.90;81.10;;;;;;5006173;28;20088;-88
2022/03/16 12:57:22;;;;;;;10.93;8.50;;;14.70;81.80;;;;;;4992277;28;20039;-89
2022/03/16 12:59:52;;;;;;;11.73;8.38;;;14.50;81.50;;;;;;4984732;28;20495;-90
2022/03/16 13:02:27;;;;;;;11.05;8.80;;;14.40;81.70;;;;;;4980864;28;20022;-92
2022/03/16 13:04:54;;;;;;;11.05;8.77;;;14.50;81.90;;;;;;4964453;28;20235;-92
2022/03/16 13:07:22;;;;;;;11.70;8.77;;;14.60;81.60;;;;;;4981074;28;20041;-91
2022/03/16 13:09:49;;;;;;;11.63;9.27;;;14.70;81.20;;;;;;4987431;28;20157;-90
2022/03/16 13:12:17;;;;;;;12.25;9.57;;;14.80;81.10;;;;;;4980799;28;20057;-91
2022/03/16 13:14:46;;;;;;;11.75;9.65;;;14.80;80.80;;;;;;4988590;28;20033;-90
2022/03/16 13:17:13;;;;;;;13.05;10.07;;;14.80;80.90;;;;;;4969226;28;20031;-91
2022/03/16 13:19:40;;;;;;;13.40;9.48;;;14.80;81.20;;;;;;4982336;28;20034;-90
2022/03/16 13:22:18;;;;;;;15.32;9.90;;;14.90;80.80;;;;;;4966768;28;20033;-90
2022/03/16 13:24:50;;;;;;;12.88;10.20;;;14.80;80.30;;;;;;4971919;28;20114;-92
2022/03/16 13:27:18;;;;;;;13.00;10.45;;;14.70;80.30;;;;;;4976666;28;20063;-89
2022/03/16 13:29:49;;;;;;;16.20;11.63;;;14.60;80.70;;;;;;4977561;28;20468;-90